sensor_id;sensor_type;location;lat;lon;timestamp;P1;durP1;ratioP1;P2;durP2;ratioP2
62050;SDS011;48008;51.204;6.766;2022-07-29T00:02:24;12.25;;;2.70;;
62050;SDS011;48008;51.204;6.766;2022-07-29T00:04:52;13.40;;;2.95;;
62050;SDS011;48008;51.204;6.766;2022-07-29T00:07:19;11.18;;;2.80;;
62050;SDS011;48008;51.204;6.766;2022-07-29T00:09:46;7.05;;;2.22;;
62050;SDS011;48008;51.204;6.766;2022-07-29T00:12:13;12.65;;;2.63;;
62050;SDS011;48008;51.204;6.766;2022-07-29T00:14:39;17.67;;;3.08;;
62050;SDS011;48008;51.204;6.766;2022-07-29T00:17:06;13.55;;;3.00;;
62050;SDS011;48008;51.204;6.766;2022-07-29T00:19:33;30.60;;;2.80;;
62050;SDS011;48008;51.204;6.766;2022-07-29T00:22:00;13.48;;;2.50;;
62050;SDS011;48008;51.204;6.766;2022-07-29T00:24:27;8.60;;;2.53;;
62050;SDS011;48008;51.204;6.766;2022-07-29T00:26:54;14.43;;;3.15;;
62050;SDS011;48008;51.204;6.766;2022-07-29T00:29:21;16.00;;;2.60;;
62050;SDS011;48008;51.204;6.766;2022-07-29T00:32:03;8.27;;;2.40;;
62050;SDS011;48008;51.204;6.766;2022-07-29T00:34:30;9.85;;;2.90;;
62050;SDS011;48008;51.204;6.766;2022-07-29T00:37:17;14.18;;;2.72;;
62050;SDS011;48008;51.204;6.766;2022-07-29T00:39:44;15.65;;;3.17;;
62050;SDS011;48008;51.204;6.766;2022-07-29T00:42:11;13.77;;;2.72;;
62050;SDS011;48008;51.204;6.766;2022-07-29T00:44:39;10.13;;;2.80;;
62050;SDS011;48008;51.204;6.766;2022-07-29T00:47:06;9.95;;;2.60;;
62050;SDS011;48008;51.204;6.766;2022-07-29T00:49:34;11.48;;;2.63;;
62050;SDS011;48008;51.204;6.766;2022-07-29T00:52:02;8.63;;;2.67;;
62050;SDS011;48008;51.204;6.766;2022-07-29T00:54:30;14.05;;;2.75;;
62050;SDS011;48008;51.204;6.766;2022-07-29T00:56:58;10.32;;;2.78;;
62050;SDS011;48008;51.204;6.766;2022-07-29T00:59:26;9.77;;;2.47;;
62050;SDS011;48008;51.204;6.766;2022-07-29T01:01:54;13.60;;;2.85;;
62050;SDS011;48008;51.204;6.766;2022-07-29T01:04:21;12.57;;;2.92;;
62050;SDS011;48008;51.204;6.766;2022-07-29T01:06:48;9.48;;;2.53;;
62050;SDS011;48008;51.204;6.766;2022-07-29T01:09:15;7.88;;;2.28;;
62050;SDS011;48008;51.204;6.766;2022-07-29T01:11:43;10.18;;;2.70;;
62050;SDS011;48008;51.204;6.766;2022-07-29T01:14:12;8.52;;;2.72;;
62050;SDS011;48008;51.204;6.766;2022-07-29T01:16:42;13.48;;;2.80;;
62050;SDS011;48008;51.204;6.766;2022-07-29T01:19:23;14.90;;;2.70;;
62050;SDS011;48008;51.204;6.766;2022-07-29T01:22:12;13.93;;;2.97;;
62050;SDS011;48008;51.204;6.766;2022-07-29T01:30:42;16.38;;;2.85;;
62050;SDS011;48008;51.204;6.766;2022-07-29T01:33:11;14.50;;;2.90;;
62050;SDS011;48008;51.204;6.766;2022-07-29T01:36:01;14.98;;;3.05;;
62050;SDS011;48008;51.204;6.766;2022-07-29T01:38:36;13.77;;;2.58;;
62050;SDS011;48008;51.204;6.766;2022-07-29T01:41:06;11.40;;;2.92;;
62050;SDS011;48008;51.204;6.766;2022-07-29T01:43:40;11.75;;;2.83;;
62050;SDS011;48008;51.204;6.766;2022-07-29T01:46:12;10.23;;;2.90;;
62050;SDS011;48008;51.204;6.766;2022-07-29T01:51:16;12.45;;;2.80;;
62050;SDS011;48008;51.204;6.766;2022-07-29T01:53:47;10.20;;;2.85;;
62050;SDS011;48008;51.204;6.766;2022-07-29T01:56:20;9.88;;;2.60;;
62050;SDS011;48008;51.204;6.766;2022-07-29T01:58:49;10.88;;;2.92;;
62050;SDS011;48008;51.204;6.766;2022-07-29T02:01:19;13.38;;;2.72;;
62050;SDS011;48008;51.204;6.766;2022-07-29T02:03:47;13.23;;;2.50;;
62050;SDS011;48008;51.204;6.766;2022-07-29T02:06:16;15.82;;;3.00;;
62050;SDS011;48008;51.204;6.766;2022-07-29T02:08:45;12.82;;;3.42;;
62050;SDS011;48008;51.204;6.766;2022-07-29T02:11:13;12.65;;;3.13;;
62050;SDS011;48008;51.204;6.766;2022-07-29T02:13:41;15.57;;;2.88;;
62050;SDS011;48008;51.204;6.766;2022-07-29T02:16:10;11.75;;;2.67;;
62050;SDS011;48008;51.204;6.766;2022-07-29T02:18:39;11.70;;;2.60;;
62050;SDS011;48008;51.204;6.766;2022-07-29T02:21:09;17.75;;;3.10;;
62050;SDS011;48008;51.204;6.766;2022-07-29T02:23:39;16.00;;;3.13;;
62050;SDS011;48008;51.204;6.766;2022-07-29T02:26:06;15.18;;;3.05;;
62050;SDS011;48008;51.204;6.766;2022-07-29T02:28:35;12.07;;;2.88;;
62050;SDS011;48008;51.204;6.766;2022-07-29T02:31:02;13.70;;;2.95;;
62050;SDS011;48008;51.204;6.766;2022-07-29T02:33:30;16.42;;;2.90;;
62050;SDS011;48008;51.204;6.766;2022-07-29T02:35:58;15.30;;;3.03;;
62050;SDS011;48008;51.204;6.766;2022-07-29T02:38:27;20.50;;;3.33;;
62050;SDS011;48008;51.204;6.766;2022-07-29T02:41:16;13.82;;;3.72;;
62050;SDS011;48008;51.204;6.766;2022-07-29T02:43:47;14.10;;;3.63;;
62050;SDS011;48008;51.204;6.766;2022-07-29T02:46:20;18.80;;;4.35;;
62050;SDS011;48008;51.204;6.766;2022-07-29T02:48:56;20.58;;;5.10;;
62050;SDS011;48008;51.204;6.766;2022-07-29T02:51:29;12.85;;;3.97;;
62050;SDS011;48008;51.204;6.766;2022-07-29T02:54:05;13.55;;;4.07;;
62050;SDS011;48008;51.204;6.766;2022-07-29T02:56:35;14.07;;;3.83;;
62050;SDS011;48008;51.204;6.766;2022-07-29T02:59:06;12.30;;;3.35;;
62050;SDS011;48008;51.204;6.766;2022-07-29T03:01:37;12.50;;;3.63;;
62050;SDS011;48008;51.204;6.766;2022-07-29T03:04:08;15.63;;;3.72;;
62050;SDS011;48008;51.204;6.766;2022-07-29T03:06:37;20.50;;;3.22;;
62050;SDS011;48008;51.204;6.766;2022-07-29T03:09:07;16.63;;;3.10;;
62050;SDS011;48008;51.204;6.766;2022-07-29T03:11:37;11.82;;;2.90;;
62050;SDS011;48008;51.204;6.766;2022-07-29T03:14:05;11.07;;;2.63;;
62050;SDS011;48008;51.204;6.766;2022-07-29T03:16:32;14.20;;;2.70;;
62050;SDS011;48008;51.204;6.766;2022-07-29T03:19:06;10.40;;;2.90;;
62050;SDS011;48008;51.204;6.766;2022-07-29T03:21:33;18.67;;;3.10;;
62050;SDS011;48008;51.204;6.766;2022-07-29T03:24:00;12.13;;;2.75;;
62050;SDS011;48008;51.204;6.766;2022-07-29T03:26:27;8.93;;;2.63;;
62050;SDS011;48008;51.204;6.766;2022-07-29T03:28:54;16.20;;;2.70;;
62050;SDS011;48008;51.204;6.766;2022-07-29T03:31:21;12.05;;;3.05;;
62050;SDS011;48008;51.204;6.766;2022-07-29T03:33:47;12.80;;;2.78;;
62050;SDS011;48008;51.204;6.766;2022-07-29T03:36:14;14.73;;;3.08;;
62050;SDS011;48008;51.204;6.766;2022-07-29T03:38:41;16.48;;;3.15;;
62050;SDS011;48008;51.204;6.766;2022-07-29T03:41:12;14.40;;;3.10;;
62050;SDS011;48008;51.204;6.766;2022-07-29T03:43:41;12.77;;;3.20;;
62050;SDS011;48008;51.204;6.766;2022-07-29T03:46:09;10.43;;;3.35;;
62050;SDS011;48008;51.204;6.766;2022-07-29T03:48:39;12.35;;;2.90;;
62050;SDS011;48008;51.204;6.766;2022-07-29T03:51:11;14.95;;;3.55;;
62050;SDS011;48008;51.204;6.766;2022-07-29T03:53:39;18.90;;;3.28;;
62050;SDS011;48008;51.204;6.766;2022-07-29T03:56:05;11.93;;;3.15;;
62050;SDS011;48008;51.204;6.766;2022-07-29T03:58:33;16.65;;;3.30;;
62050;SDS011;48008;51.204;6.766;2022-07-29T04:01:01;11.27;;;2.97;;
62050;SDS011;48008;51.204;6.766;2022-07-29T04:03:28;12.93;;;3.25;;
62050;SDS011;48008;51.204;6.766;2022-07-29T04:06:03;15.82;;;3.70;;
62050;SDS011;48008;51.204;6.766;2022-07-29T04:08:32;15.20;;;4.00;;
62050;SDS011;48008;51.204;6.766;2022-07-29T04:11:00;14.93;;;3.45;;
62050;SDS011;48008;51.204;6.766;2022-07-29T04:13:28;12.00;;;3.92;;
62050;SDS011;48008;51.204;6.766;2022-07-29T04:15:54;18.50;;;4.35;;
62050;SDS011;48008;51.204;6.766;2022-07-29T04:18:21;13.02;;;4.47;;
62050;SDS011;48008;51.204;6.766;2022-07-29T04:20:48;13.10;;;4.68;;
62050;SDS011;48008;51.204;6.766;2022-07-29T04:23:15;17.63;;;4.70;;
62050;SDS011;48008;51.204;6.766;2022-07-29T04:25:42;19.17;;;5.00;;
62050;SDS011;48008;51.204;6.766;2022-07-29T04:28:09;19.30;;;5.53;;
62050;SDS011;48008;51.204;6.766;2022-07-29T04:30:36;35.47;;;8.65;;
62050;SDS011;48008;51.204;6.766;2022-07-29T04:33:05;21.77;;;8.35;;
62050;SDS011;48008;51.204;6.766;2022-07-29T04:35:34;22.60;;;7.90;;
62050;SDS011;48008;51.204;6.766;2022-07-29T04:38:03;23.00;;;6.90;;
62050;SDS011;48008;51.204;6.766;2022-07-29T04:40:30;19.00;;;5.72;;
62050;SDS011;48008;51.204;6.766;2022-07-29T04:42:59;18.73;;;5.60;;
62050;SDS011;48008;51.204;6.766;2022-07-29T04:45:27;23.52;;;5.53;;
62050;SDS011;48008;51.204;6.766;2022-07-29T04:47:55;20.20;;;6.50;;
62050;SDS011;48008;51.204;6.766;2022-07-29T04:50:22;17.75;;;5.00;;
62050;SDS011;48008;51.204;6.766;2022-07-29T04:52:49;14.70;;;4.90;;
62050;SDS011;48008;51.204;6.766;2022-07-29T04:55:16;18.05;;;4.68;;
62050;SDS011;48008;51.204;6.766;2022-07-29T04:57:43;15.57;;;5.00;;
62050;SDS011;48008;51.204;6.766;2022-07-29T05:00:09;20.30;;;6.10;;
62050;SDS011;48008;51.204;6.766;2022-07-29T05:02:37;14.63;;;5.68;;
62050;SDS011;48008;51.204;6.766;2022-07-29T05:05:03;14.73;;;5.70;;
62050;SDS011;48008;51.204;6.766;2022-07-29T05:07:30;16.52;;;6.53;;
62050;SDS011;48008;51.204;6.766;2022-07-29T05:09:57;16.42;;;5.03;;
62050;SDS011;48008;51.204;6.766;2022-07-29T05:12:24;13.73;;;5.40;;
62050;SDS011;48008;51.204;6.766;2022-07-29T05:14:51;16.30;;;5.88;;
62050;SDS011;48008;51.204;6.766;2022-07-29T05:17:18;15.48;;;5.32;;
62050;SDS011;48008;51.204;6.766;2022-07-29T05:19:45;16.42;;;5.55;;
62050;SDS011;48008;51.204;6.766;2022-07-29T05:22:11;16.40;;;5.53;;
62050;SDS011;48008;51.204;6.766;2022-07-29T05:24:38;16.30;;;5.63;;
62050;SDS011;48008;51.204;6.766;2022-07-29T05:27:05;17.65;;;5.38;;
62050;SDS011;48008;51.204;6.766;2022-07-29T05:29:32;14.60;;;5.70;;
62050;SDS011;48008;51.204;6.766;2022-07-29T05:31:58;23.17;;;6.15;;
62050;SDS011;48008;51.204;6.766;2022-07-29T05:34:25;18.00;;;5.43;;
62050;SDS011;48008;51.204;6.766;2022-07-29T05:36:52;15.98;;;5.60;;
62050;SDS011;48008;51.204;6.766;2022-07-29T05:39:19;21.00;;;6.72;;
62050;SDS011;48008;51.204;6.766;2022-07-29T05:41:45;20.08;;;5.60;;
62050;SDS011;48008;51.204;6.766;2022-07-29T05:44:15;16.13;;;5.43;;
62050;SDS011;48008;51.204;6.766;2022-07-29T05:46:43;15.32;;;5.50;;
62050;SDS011;48008;51.204;6.766;2022-07-29T05:49:10;21.83;;;5.88;;
62050;SDS011;48008;51.204;6.766;2022-07-29T05:51:36;22.27;;;5.50;;
62050;SDS011;48008;51.204;6.766;2022-07-29T05:54:03;16.70;;;5.70;;
62050;SDS011;48008;51.204;6.766;2022-07-29T05:56:30;19.92;;;5.63;;
62050;SDS011;48008;51.204;6.766;2022-07-29T05:58:57;18.27;;;6.00;;
62050;SDS011;48008;51.204;6.766;2022-07-29T06:01:24;18.35;;;5.97;;
62050;SDS011;48008;51.204;6.766;2022-07-29T06:03:51;15.63;;;5.47;;
62050;SDS011;48008;51.204;6.766;2022-07-29T06:06:18;16.77;;;5.35;;
62050;SDS011;48008;51.204;6.766;2022-07-29T06:08:45;17.45;;;5.20;;
62050;SDS011;48008;51.204;6.766;2022-07-29T06:11:11;15.27;;;5.30;;
62050;SDS011;48008;51.204;6.766;2022-07-29T06:13:38;16.90;;;5.22;;
62050;SDS011;48008;51.204;6.766;2022-07-29T06:16:05;13.23;;;5.22;;
62050;SDS011;48008;51.204;6.766;2022-07-29T06:18:31;18.20;;;5.47;;
62050;SDS011;48008;51.204;6.766;2022-07-29T06:20:58;16.23;;;5.43;;
62050;SDS011;48008;51.204;6.766;2022-07-29T06:23:25;18.48;;;6.07;;
62050;SDS011;48008;51.204;6.766;2022-07-29T06:25:52;16.67;;;6.00;;
62050;SDS011;48008;51.204;6.766;2022-07-29T06:28:19;19.88;;;5.90;;
62050;SDS011;48008;51.204;6.766;2022-07-29T06:30:45;17.30;;;5.28;;
62050;SDS011;48008;51.204;6.766;2022-07-29T06:33:16;15.35;;;4.97;;
62050;SDS011;48008;51.204;6.766;2022-07-29T06:35:43;13.25;;;4.80;;
62050;SDS011;48008;51.204;6.766;2022-07-29T06:38:11;13.70;;;5.10;;
62050;SDS011;48008;51.204;6.766;2022-07-29T06:40:42;14.27;;;5.53;;
62050;SDS011;48008;51.204;6.766;2022-07-29T06:43:31;16.65;;;5.97;;
62050;SDS011;48008;51.204;6.766;2022-07-29T06:46:00;17.98;;;5.60;;
62050;SDS011;48008;51.204;6.766;2022-07-29T06:48:29;21.65;;;5.38;;
62050;SDS011;48008;51.204;6.766;2022-07-29T06:50:56;16.35;;;5.40;;
62050;SDS011;48008;51.204;6.766;2022-07-29T06:53:24;17.55;;;5.88;;
62050;SDS011;48008;51.204;6.766;2022-07-29T06:55:50;13.15;;;5.45;;
62050;SDS011;48008;51.204;6.766;2022-07-29T06:58:17;13.27;;;5.70;;
62050;SDS011;48008;51.204;6.766;2022-07-29T07:00:54;16.08;;;5.55;;
62050;SDS011;48008;51.204;6.766;2022-07-29T07:03:23;15.75;;;6.13;;
62050;SDS011;48008;51.204;6.766;2022-07-29T07:05:50;15.70;;;6.05;;
62050;SDS011;48008;51.204;6.766;2022-07-29T07:08:19;17.30;;;5.50;;
62050;SDS011;48008;51.204;6.766;2022-07-29T07:10:47;14.75;;;5.40;;
62050;SDS011;48008;51.204;6.766;2022-07-29T07:13:14;16.00;;;5.85;;
62050;SDS011;48008;51.204;6.766;2022-07-29T07:15:43;20.08;;;5.95;;
62050;SDS011;48008;51.204;6.766;2022-07-29T07:18:11;21.75;;;5.75;;
62050;SDS011;48008;51.204;6.766;2022-07-29T07:20:38;14.98;;;5.72;;
62050;SDS011;48008;51.204;6.766;2022-07-29T07:23:05;17.88;;;6.30;;
62050;SDS011;48008;51.204;6.766;2022-07-29T07:25:31;18.73;;;6.30;;
62050;SDS011;48008;51.204;6.766;2022-07-29T07:27:58;16.58;;;6.75;;
62050;SDS011;48008;51.204;6.766;2022-07-29T07:30:25;15.50;;;6.65;;
62050;SDS011;48008;51.204;6.766;2022-07-29T07:32:52;18.65;;;6.43;;
62050;SDS011;48008;51.204;6.766;2022-07-29T07:35:19;15.80;;;6.13;;
62050;SDS011;48008;51.204;6.766;2022-07-29T07:37:46;17.35;;;6.82;;
62050;SDS011;48008;51.204;6.766;2022-07-29T07:40:13;17.17;;;7.03;;
62050;SDS011;48008;51.204;6.766;2022-07-29T07:42:40;20.75;;;6.43;;
62050;SDS011;48008;51.204;6.766;2022-07-29T07:45:08;19.20;;;6.18;;
62050;SDS011;48008;51.204;6.766;2022-07-29T07:47:39;23.27;;;6.78;;
62050;SDS011;48008;51.204;6.766;2022-07-29T07:50:07;20.02;;;7.13;;
62050;SDS011;48008;51.204;6.766;2022-07-29T07:52:53;20.42;;;7.25;;
62050;SDS011;48008;51.204;6.766;2022-07-29T07:55:24;21.42;;;7.35;;
62050;SDS011;48008;51.204;6.766;2022-07-29T07:57:51;27.65;;;6.80;;
62050;SDS011;48008;51.204;6.766;2022-07-29T08:00:18;23.20;;;6.32;;
62050;SDS011;48008;51.204;6.766;2022-07-29T08:02:46;19.13;;;6.72;;
62050;SDS011;48008;51.204;6.766;2022-07-29T08:05:13;20.92;;;6.60;;
62050;SDS011;48008;51.204;6.766;2022-07-29T08:07:43;19.15;;;6.22;;
62050;SDS011;48008;51.204;6.766;2022-07-29T08:10:13;22.15;;;6.55;;
62050;SDS011;48008;51.204;6.766;2022-07-29T08:12:41;20.75;;;6.60;;
62050;SDS011;48008;51.204;6.766;2022-07-29T08:15:07;16.42;;;7.07;;
62050;SDS011;48008;51.204;6.766;2022-07-29T08:17:35;17.42;;;7.35;;
62050;SDS011;48008;51.204;6.766;2022-07-29T08:20:02;17.63;;;6.72;;
62050;SDS011;48008;51.204;6.766;2022-07-29T08:22:29;21.85;;;8.05;;
62050;SDS011;48008;51.204;6.766;2022-07-29T08:24:57;19.65;;;7.10;;
62050;SDS011;48008;51.204;6.766;2022-07-29T08:27:23;19.75;;;6.95;;
62050;SDS011;48008;51.204;6.766;2022-07-29T08:30:08;17.63;;;6.85;;
62050;SDS011;48008;51.204;6.766;2022-07-29T08:32:36;19.90;;;7.13;;
62050;SDS011;48008;51.204;6.766;2022-07-29T08:35:17;17.48;;;7.25;;
62050;SDS011;48008;51.204;6.766;2022-07-29T08:37:44;25.52;;;7.45;;
62050;SDS011;48008;51.204;6.766;2022-07-29T08:40:11;19.67;;;7.25;;
62050;SDS011;48008;51.204;6.766;2022-07-29T08:42:38;22.60;;;7.60;;
62050;SDS011;48008;51.204;6.766;2022-07-29T08:45:05;30.33;;;8.05;;
62050;SDS011;48008;51.204;6.766;2022-07-29T08:47:32;21.48;;;7.60;;
62050;SDS011;48008;51.204;6.766;2022-07-29T08:49:59;21.52;;;6.90;;
62050;SDS011;48008;51.204;6.766;2022-07-29T08:52:27;19.80;;;7.00;;
62050;SDS011;48008;51.204;6.766;2022-07-29T08:54:55;20.63;;;6.60;;
62050;SDS011;48008;51.204;6.766;2022-07-29T08:57:23;14.00;;;5.97;;
62050;SDS011;48008;51.204;6.766;2022-07-29T08:59:51;19.48;;;6.32;;
62050;SDS011;48008;51.204;6.766;2022-07-29T09:02:21;23.00;;;6.57;;
62050;SDS011;48008;51.204;6.766;2022-07-29T09:04:48;19.08;;;6.53;;
62050;SDS011;48008;51.204;6.766;2022-07-29T09:07:17;18.77;;;7.32;;
62050;SDS011;48008;51.204;6.766;2022-07-29T09:09:44;25.38;;;6.72;;
62050;SDS011;48008;51.204;6.766;2022-07-29T09:12:11;20.08;;;6.68;;
62050;SDS011;48008;51.204;6.766;2022-07-29T09:14:39;14.73;;;5.72;;
62050;SDS011;48008;51.204;6.766;2022-07-29T09:17:05;20.90;;;6.65;;
62050;SDS011;48008;51.204;6.766;2022-07-29T09:19:34;19.58;;;7.10;;
62050;SDS011;48008;51.204;6.766;2022-07-29T09:22:02;22.23;;;7.35;;
62050;SDS011;48008;51.204;6.766;2022-07-29T09:27:12;17.30;;;7.10;;
62050;SDS011;48008;51.204;6.766;2022-07-29T09:29:55;21.52;;;7.55;;
62050;SDS011;48008;51.204;6.766;2022-07-29T09:32:23;19.70;;;7.15;;
62050;SDS011;48008;51.204;6.766;2022-07-29T09:34:50;24.42;;;7.15;;
62050;SDS011;48008;51.204;6.766;2022-07-29T09:37:34;19.75;;;7.25;;
62050;SDS011;48008;51.204;6.766;2022-07-29T09:42:37;20.35;;;6.40;;
62050;SDS011;48008;51.204;6.766;2022-07-29T09:45:04;20.48;;;7.22;;
62050;SDS011;48008;51.204;6.766;2022-07-29T09:47:47;14.15;;;6.43;;
62050;SDS011;48008;51.204;6.766;2022-07-29T09:50:15;21.50;;;6.57;;
62050;SDS011;48008;51.204;6.766;2022-07-29T09:52:45;17.95;;;6.07;;
62050;SDS011;48008;51.204;6.766;2022-07-29T09:55:14;22.60;;;6.45;;
62050;SDS011;48008;51.204;6.766;2022-07-29T09:57:42;30.33;;;6.47;;
62050;SDS011;48008;51.204;6.766;2022-07-29T10:00:11;23.58;;;6.47;;
62050;SDS011;48008;51.204;6.766;2022-07-29T10:02:42;20.07;;;6.17;;
62050;SDS011;48008;51.204;6.766;2022-07-29T10:05:19;20.75;;;6.22;;
62050;SDS011;48008;51.204;6.766;2022-07-29T10:07:51;16.05;;;6.60;;
62050;SDS011;48008;51.204;6.766;2022-07-29T10:10:23;21.37;;;6.60;;
62050;SDS011;48008;51.204;6.766;2022-07-29T10:12:54;23.98;;;7.20;;
62050;SDS011;48008;51.204;6.766;2022-07-29T10:15:23;17.33;;;6.53;;
62050;SDS011;48008;51.204;6.766;2022-07-29T10:17:51;20.73;;;6.65;;
62050;SDS011;48008;51.204;6.766;2022-07-29T10:20:20;17.33;;;6.18;;
62050;SDS011;48008;51.204;6.766;2022-07-29T10:22:48;23.00;;;6.22;;
62050;SDS011;48008;51.204;6.766;2022-07-29T10:25:18;19.08;;;6.38;;
62050;SDS011;48008;51.204;6.766;2022-07-29T10:27:46;22.33;;;6.65;;
62050;SDS011;48008;51.204;6.766;2022-07-29T10:30:15;15.95;;;6.47;;
62050;SDS011;48008;51.204;6.766;2022-07-29T10:33:01;21.83;;;6.13;;
62050;SDS011;48008;51.204;6.766;2022-07-29T10:42:09;13.57;;;5.28;;
62050;SDS011;48008;51.204;6.766;2022-07-29T10:44:43;16.90;;;6.03;;
62050;SDS011;48008;51.204;6.766;2022-07-29T10:47:19;20.50;;;5.90;;
62050;SDS011;48008;51.204;6.766;2022-07-29T10:49:55;13.55;;;5.47;;
62050;SDS011;48008;51.204;6.766;2022-07-29T10:52:58;16.75;;;5.70;;
62050;SDS011;48008;51.204;6.766;2022-07-29T10:55:36;13.82;;;5.88;;
62050;SDS011;48008;51.204;6.766;2022-07-29T11:00:53;15.82;;;5.10;;
62050;SDS011;48008;51.204;6.766;2022-07-29T11:03:51;16.98;;;4.68;;
62050;SDS011;48008;51.204;6.766;2022-07-29T11:06:16;18.05;;;4.80;;
62050;SDS011;48008;51.204;6.766;2022-07-29T11:08:45;17.48;;;4.70;;
62050;SDS011;48008;51.204;6.766;2022-07-29T11:11:47;20.88;;;4.70;;
62050;SDS011;48008;51.204;6.766;2022-07-29T11:14:13;15.18;;;4.43;;
62050;SDS011;48008;51.204;6.766;2022-07-29T11:17:10;14.05;;;4.53;;
62050;SDS011;48008;51.204;6.766;2022-07-29T11:19:29;18.90;;;4.22;;
62050;SDS011;48008;51.204;6.766;2022-07-29T11:21:56;11.18;;;3.80;;
62050;SDS011;48008;51.204;6.766;2022-07-29T11:24:25;17.92;;;4.10;;
62050;SDS011;48008;51.204;6.766;2022-07-29T11:27:30;20.73;;;4.23;;
62050;SDS011;48008;51.204;6.766;2022-07-29T11:29:50;14.07;;;4.00;;
62050;SDS011;48008;51.204;6.766;2022-07-29T11:32:19;13.02;;;3.85;;
62050;SDS011;48008;51.204;6.766;2022-07-29T11:34:48;16.50;;;4.25;;
62050;SDS011;48008;51.204;6.766;2022-07-29T11:37:17;13.60;;;3.80;;
62050;SDS011;48008;51.204;6.766;2022-07-29T11:39:46;16.30;;;3.63;;
62050;SDS011;48008;51.204;6.766;2022-07-29T11:45:04;14.50;;;4.85;;
62050;SDS011;48008;51.204;6.766;2022-07-29T11:47:51;20.00;;;4.32;;
62050;SDS011;48008;51.204;6.766;2022-07-29T11:50:36;19.05;;;4.72;;
62050;SDS011;48008;51.204;6.766;2022-07-29T11:53:09;16.23;;;5.07;;
62050;SDS011;48008;51.204;6.766;2022-07-29T11:55:39;20.75;;;5.20;;
62050;SDS011;48008;51.204;6.766;2022-07-29T11:58:07;23.02;;;7.13;;
62050;SDS011;48008;51.204;6.766;2022-07-29T12:00:35;21.65;;;6.60;;
62050;SDS011;48008;51.204;6.766;2022-07-29T12:03:05;27.08;;;7.40;;
62050;SDS011;48008;51.204;6.766;2022-07-29T12:05:35;28.15;;;6.68;;
62050;SDS011;48008;51.204;6.766;2022-07-29T12:08:12;26.63;;;7.45;;
62050;SDS011;48008;51.204;6.766;2022-07-29T12:10:41;23.10;;;6.72;;
62050;SDS011;48008;51.204;6.766;2022-07-29T12:13:09;23.00;;;7.03;;
62050;SDS011;48008;51.204;6.766;2022-07-29T12:15:37;25.42;;;7.22;;
62050;SDS011;48008;51.204;6.766;2022-07-29T12:18:19;25.80;;;7.47;;
62050;SDS011;48008;51.204;6.766;2022-07-29T12:20:47;18.77;;;7.57;;
62050;SDS011;48008;51.204;6.766;2022-07-29T12:23:14;22.92;;;7.50;;
62050;SDS011;48008;51.204;6.766;2022-07-29T12:25:43;21.90;;;7.30;;
62050;SDS011;48008;51.204;6.766;2022-07-29T12:28:12;21.40;;;7.32;;
62050;SDS011;48008;51.204;6.766;2022-07-29T12:30:43;23.48;;;6.47;;
62050;SDS011;48008;51.204;6.766;2022-07-29T12:33:12;18.52;;;6.93;;
62050;SDS011;48008;51.204;6.766;2022-07-29T12:35:45;19.73;;;6.53;;
62050;SDS011;48008;51.204;6.766;2022-07-29T12:38:23;23.23;;;6.38;;
62050;SDS011;48008;51.204;6.766;2022-07-29T12:40:51;24.25;;;6.55;;
62050;SDS011;48008;51.204;6.766;2022-07-29T12:43:21;23.60;;;7.10;;
62050;SDS011;48008;51.204;6.766;2022-07-29T12:45:50;29.58;;;7.65;;
62050;SDS011;48008;51.204;6.766;2022-07-29T12:51:08;23.17;;;7.97;;
62050;SDS011;48008;51.204;6.766;2022-07-29T12:53:36;29.77;;;8.45;;
62050;SDS011;48008;51.204;6.766;2022-07-29T12:56:04;21.85;;;7.35;;
62050;SDS011;48008;51.204;6.766;2022-07-29T12:58:38;27.67;;;7.80;;
62050;SDS011;48008;51.204;6.766;2022-07-29T13:01:09;24.63;;;8.00;;
62050;SDS011;48008;51.204;6.766;2022-07-29T13:04:00;19.67;;;6.90;;
62050;SDS011;48008;51.204;6.766;2022-07-29T13:06:43;15.60;;;6.65;;
62050;SDS011;48008;51.204;6.766;2022-07-29T13:09:12;18.92;;;7.20;;
62050;SDS011;48008;51.204;6.766;2022-07-29T13:11:43;22.83;;;7.10;;
62050;SDS011;48008;51.204;6.766;2022-07-29T13:14:14;21.80;;;6.80;;
62050;SDS011;48008;51.204;6.766;2022-07-29T13:17:00;22.25;;;6.60;;
62050;SDS011;48008;51.204;6.766;2022-07-29T13:19:44;20.88;;;6.05;;
62050;SDS011;48008;51.204;6.766;2022-07-29T13:22:14;17.33;;;5.72;;
62050;SDS011;48008;51.204;6.766;2022-07-29T13:24:57;19.35;;;6.38;;
62050;SDS011;48008;51.204;6.766;2022-07-29T13:27:30;19.95;;;5.65;;
62050;SDS011;48008;51.204;6.766;2022-07-29T13:29:59;24.00;;;5.63;;
62050;SDS011;48008;51.204;6.766;2022-07-29T13:32:27;17.83;;;5.53;;
62050;SDS011;48008;51.204;6.766;2022-07-29T13:34:56;20.20;;;5.88;;
62050;SDS011;48008;51.204;6.766;2022-07-29T13:37:25;18.48;;;5.38;;
62050;SDS011;48008;51.204;6.766;2022-07-29T13:39:52;18.35;;;5.57;;
62050;SDS011;48008;51.204;6.766;2022-07-29T13:42:20;16.83;;;6.00;;
62050;SDS011;48008;51.204;6.766;2022-07-29T13:44:47;16.48;;;5.45;;
62050;SDS011;48008;51.204;6.766;2022-07-29T13:47:14;18.75;;;6.03;;
62050;SDS011;48008;51.204;6.766;2022-07-29T13:49:42;17.92;;;6.72;;
62050;SDS011;48008;51.204;6.766;2022-07-29T13:52:09;16.70;;;5.03;;
62050;SDS011;48008;51.204;6.766;2022-07-29T13:54:36;23.75;;;5.75;;
62050;SDS011;48008;51.204;6.766;2022-07-29T13:57:08;18.17;;;5.50;;
62050;SDS011;48008;51.204;6.766;2022-07-29T13:59:37;18.33;;;5.20;;
62050;SDS011;48008;51.204;6.766;2022-07-29T14:02:05;22.45;;;5.57;;
62050;SDS011;48008;51.204;6.766;2022-07-29T14:04:33;19.98;;;4.82;;
62050;SDS011;48008;51.204;6.766;2022-07-29T14:07:00;17.48;;;4.70;;
62050;SDS011;48008;51.204;6.766;2022-07-29T14:09:27;16.73;;;5.28;;
62050;SDS011;48008;51.204;6.766;2022-07-29T14:11:53;20.08;;;5.32;;
62050;SDS011;48008;51.204;6.766;2022-07-29T14:14:20;17.58;;;5.45;;
62050;SDS011;48008;51.204;6.766;2022-07-29T14:16:47;17.15;;;5.82;;
62050;SDS011;48008;51.204;6.766;2022-07-29T14:19:17;16.65;;;5.20;;
62050;SDS011;48008;51.204;6.766;2022-07-29T14:21:44;17.13;;;6.07;;
62050;SDS011;48008;51.204;6.766;2022-07-29T14:24:11;15.40;;;5.60;;
62050;SDS011;48008;51.204;6.766;2022-07-29T14:26:38;34.63;;;16.38;;
62050;SDS011;48008;51.204;6.766;2022-07-29T14:29:05;43.72;;;23.50;;
62050;SDS011;48008;51.204;6.766;2022-07-29T14:31:31;28.88;;;13.60;;
62050;SDS011;48008;51.204;6.766;2022-07-29T14:33:58;19.38;;;4.97;;
62050;SDS011;48008;51.204;6.766;2022-07-29T14:36:27;20.15;;;4.90;;
62050;SDS011;48008;51.204;6.766;2022-07-29T14:38:54;18.45;;;5.15;;
62050;SDS011;48008;51.204;6.766;2022-07-29T14:41:21;22.73;;;8.88;;
62050;SDS011;48008;51.204;6.766;2022-07-29T14:43:47;16.95;;;4.70;;
62050;SDS011;48008;51.204;6.766;2022-07-29T14:46:14;22.73;;;5.20;;
62050;SDS011;48008;51.204;6.766;2022-07-29T14:48:41;19.15;;;5.35;;
62050;SDS011;48008;51.204;6.766;2022-07-29T14:51:07;23.15;;;5.88;;
62050;SDS011;48008;51.204;6.766;2022-07-29T14:53:34;18.73;;;5.20;;
62050;SDS011;48008;51.204;6.766;2022-07-29T14:56:01;17.08;;;4.35;;
62050;SDS011;48008;51.204;6.766;2022-07-29T14:58:41;16.58;;;4.55;;
62050;SDS011;48008;51.204;6.766;2022-07-29T15:01:08;15.55;;;4.70;;
62050;SDS011;48008;51.204;6.766;2022-07-29T15:03:34;23.10;;;4.80;;
62050;SDS011;48008;51.204;6.766;2022-07-29T15:06:01;14.65;;;3.97;;
62050;SDS011;48008;51.204;6.766;2022-07-29T15:08:28;13.00;;;3.70;;
62050;SDS011;48008;51.204;6.766;2022-07-29T15:10:56;13.63;;;4.20;;
62050;SDS011;48008;51.204;6.766;2022-07-29T15:13:25;16.80;;;4.22;;
62050;SDS011;48008;51.204;6.766;2022-07-29T15:15:52;17.17;;;4.10;;
62050;SDS011;48008;51.204;6.766;2022-07-29T15:18:21;14.65;;;4.03;;
62050;SDS011;48008;51.204;6.766;2022-07-29T15:20:47;16.20;;;3.60;;